createdAt,value
2018-02-04T00:01:05.904Z,14.10
2018-02-04T00:03:34.220Z,14.60
2018-02-04T00:06:02.552Z,14.90
2018-02-04T00:08:30.915Z,14.90
2018-02-04T00:10:59.212Z,14.73
2018-02-04T00:13:28.949Z,15.27
2018-02-04T00:15:58.091Z,15.30
2018-02-04T00:18:27.282Z,13.88
2018-02-04T00:20:55.604Z,15.35
2018-02-04T00:23:24.029Z,15.32
2018-02-04T00:25:52.352Z,14.68
2018-02-04T00:28:20.646Z,16.48
2018-02-04T00:30:48.961Z,16.12
2018-02-04T00:33:17.282Z,15.02
2018-02-04T00:35:45.747Z,16.62
2018-02-04T00:38:14.869Z,17.52
2018-02-04T00:40:43.483Z,16.12
2018-02-04T00:43:11.792Z,14.85
2018-02-04T00:45:41.654Z,16.23
2018-02-04T00:48:09.971Z,15.48
2018-02-04T00:50:38.294Z,15.45
2018-02-04T00:53:06.612Z,16.40
2018-02-04T00:55:34.916Z,15.75
2018-02-04T00:58:03.306Z,16.87
2018-02-04T01:00:32.405Z,15.40
2018-02-04T01:03:01.464Z,15.75
2018-02-04T01:05:29.803Z,17.00
2018-02-04T01:07:58.197Z,16.10
2018-02-04T01:10:26.509Z,16.35
2018-02-04T01:12:54.834Z,14.87
2018-02-04T01:15:23.964Z,14.38
2018-02-04T01:17:52.261Z,16.30
2018-02-04T01:20:20.639Z,15.93
2018-02-04T01:22:49.734Z,16.17
2018-02-04T01:25:18.032Z,15.30
2018-02-04T01:27:46.324Z,14.30
2018-02-04T01:30:15.625Z,14.07
2018-02-04T01:32:44.691Z,13.35
2018-02-04T01:35:12.995Z,14.48
2018-02-04T01:37:42.096Z,15.00
2018-02-04T01:40:11.223Z,14.50
2018-02-04T01:42:39.565Z,15.77
2018-02-04T01:45:07.891Z,15.85
2018-02-04T01:47:36.362Z,14.45
2018-02-04T01:50:04.644Z,13.95
2018-02-04T01:52:33.214Z,14.40
2018-02-04T01:55:01.535Z,14.07
2018-02-04T01:57:29.838Z,14.63
2018-02-04T01:59:58.186Z,15.20
2018-02-04T02:02:26.475Z,14.07
2018-02-04T02:04:54.791Z,14.00
2018-02-04T02:07:23.141Z,13.65
2018-02-04T02:09:51.472Z,13.85
2018-02-04T02:12:19.811Z,14.30
2018-02-04T02:14:49.404Z,14.50
2018-02-04T02:17:17.793Z,13.77
2018-02-04T02:19:46.097Z,12.88
2018-02-04T02:22:15.204Z,13.43
2018-02-04T02:24:43.493Z,13.15
2018-02-04T02:27:11.867Z,12.63
2018-02-04T02:29:40.232Z,12.45
2018-02-04T02:32:08.552Z,12.45
2018-02-04T02:34:36.859Z,13.98
2018-02-04T02:37:06.405Z,13.80
2018-02-04T02:39:34.715Z,11.98
2018-02-04T02:42:03.028Z,11.98
2018-02-04T02:44:32.139Z,12.48
2018-02-04T02:47:01.226Z,12.18
2018-02-04T02:49:30.362Z,12.50
2018-02-04T02:51:58.759Z,12.82
2018-02-04T02:54:27.067Z,11.88
2018-02-04T02:56:55.368Z,13.20
2018-02-04T02:59:24.936Z,11.73
2018-02-04T03:01:53.248Z,12.55
2018-02-04T03:04:22.296Z,12.43
2018-02-04T03:06:50.627Z,13.38
2018-02-04T03:09:18.934Z,13.50
2018-02-04T03:11:47.269Z,14.35
2018-02-04T03:14:15.585Z,13.75
2018-02-04T03:16:43.905Z,14.05
2018-02-04T03:19:12.218Z,13.55
2018-02-04T03:21:40.697Z,14.75
2018-02-04T03:24:09.009Z,13.50
2018-02-04T03:26:37.382Z,14.30
2018-02-04T03:29:05.734Z,13.82
2018-02-04T03:31:34.066Z,13.32
2018-02-04T03:34:02.398Z,14.05
2018-02-04T03:36:31.487Z,12.95
2018-02-04T03:39:00.579Z,13.30
2018-02-04T03:41:29.645Z,13.57
2018-02-04T03:43:58.189Z,13.30
2018-02-04T03:46:26.501Z,13.43
2018-02-04T03:48:54.831Z,13.60
2018-02-04T03:51:23.170Z,14.10
2018-02-04T03:53:51.507Z,13.38
2018-02-04T03:56:19.838Z,14.18
2018-02-04T03:58:48.153Z,14.82
2018-02-04T04:01:16.453Z,12.68
2018-02-04T04:03:44.764Z,12.90
2018-02-04T04:06:13.341Z,14.20
2018-02-04T04:08:41.623Z,13.82
2018-02-04T04:11:09.912Z,13.77
2018-02-04T04:13:39.189Z,14.68
2018-02-04T04:16:07.569Z,14.98
2018-02-04T04:18:35.955Z,15.30
2018-02-04T04:21:04.402Z,14.85
2018-02-04T04:23:32.725Z,14.75
2018-02-04T04:26:01.160Z,15.85
2018-02-04T04:28:29.876Z,15.90
2018-02-04T04:30:58.357Z,15.88
2018-02-04T04:33:26.840Z,16.30
2018-02-04T04:35:55.377Z,15.68
2018-02-04T04:38:23.718Z,15.85
2018-02-04T04:40:52.862Z,17.35
2018-02-04T04:43:21.255Z,16.80
2018-02-04T04:45:50.477Z,17.17
2018-02-04T04:48:18.828Z,17.15
2018-02-04T04:50:47.856Z,16.20
2018-02-04T04:53:16.172Z,15.15
2018-02-04T04:55:44.520Z,15.90
2018-02-04T04:58:13.705Z,16.45
2018-02-04T05:00:42.088Z,17.35
2018-02-04T05:03:10.446Z,16.55
2018-02-04T05:05:38.792Z,16.92
2018-02-04T05:08:07.121Z,16.77
2018-02-04T05:10:35.428Z,16.00
2018-02-04T05:13:04.695Z,16.83
2018-02-04T05:15:33.023Z,18.17
2018-02-04T05:18:01.343Z,15.30
2018-02-04T05:20:29.683Z,16.67
2018-02-04T05:22:58.019Z,17.73
2018-02-04T05:25:26.330Z,17.00
2018-02-04T05:27:54.690Z,17.67
2018-02-04T05:30:23.023Z,16.17
2018-02-04T05:32:51.332Z,17.65
2018-02-04T05:35:19.892Z,16.30
2018-02-04T05:37:48.206Z,15.50
2018-02-04T05:40:16.719Z,16.45
2018-02-04T05:42:45.176Z,16.15
2018-02-04T05:45:13.531Z,16.77
2018-02-04T05:47:41.857Z,14.93
2018-02-04T05:50:10.284Z,15.65
2018-02-04T05:52:38.634Z,15.55
2018-02-04T05:55:07.050Z,15.95
2018-02-04T05:57:35.776Z,15.30
2018-02-04T06:00:04.065Z,15.25
2018-02-04T06:02:32.384Z,17.70
2018-02-04T06:05:00.742Z,15.73
2018-02-04T06:07:29.040Z,14.38
2018-02-04T06:09:57.351Z,15.55
2018-02-04T06:12:26.455Z,16.12
2018-02-04T06:14:55.531Z,15.35
2018-02-04T06:17:23.876Z,15.80
2018-02-04T06:19:52.563Z,14.98
2018-02-04T06:22:20.873Z,15.95
2018-02-04T06:24:49.195Z,16.42
2018-02-04T06:27:17.513Z,15.88
2018-02-04T06:29:45.815Z,15.75
2018-02-04T06:32:14.881Z,15.90
2018-02-04T06:34:43.963Z,16.42
2018-02-04T06:37:12.272Z,16.10
2018-02-04T06:39:40.583Z,15.85
2018-02-04T06:42:08.987Z,16.70
2018-02-04T06:44:37.316Z,17.87
2018-02-04T06:47:05.656Z,16.23
2018-02-04T06:49:33.989Z,14.85
2018-02-04T06:52:02.311Z,16.15
2018-02-04T06:54:30.716Z,14.50
2018-02-04T06:56:59.067Z,15.18
2018-02-04T06:59:27.369Z,15.48
2018-02-04T07:01:55.653Z,14.82
2018-02-04T07:04:24.460Z,15.10
2018-02-04T07:06:52.776Z,15.63
2018-02-04T07:09:21.105Z,14.65
2018-02-04T07:11:49.448Z,15.70
2018-02-04T07:14:17.764Z,14.05
2018-02-04T07:16:46.132Z,14.98
2018-02-04T07:19:14.477Z,15.07
2018-02-04T07:21:42.816Z,15.77
2018-02-04T07:24:11.955Z,15.00
2018-02-04T07:26:40.661Z,15.60
2018-02-04T07:29:09.158Z,15.15
2018-02-04T07:31:38.237Z,14.95
2018-02-04T07:34:06.555Z,13.55
2018-02-04T07:36:35.643Z,15.05
2018-02-04T07:39:04.739Z,14.55
2018-02-04T07:41:33.843Z,12.85
2018-02-04T07:44:02.924Z,13.00
2018-02-04T07:46:32.016Z,14.32
2018-02-04T07:49:01.603Z,12.43
2018-02-04T07:51:29.944Z,11.30
2018-02-04T07:53:58.291Z,12.50
2018-02-04T07:56:27.402Z,12.85
2018-02-04T07:58:55.715Z,14.20
2018-02-04T08:01:24.012Z,12.47
2018-02-04T08:03:52.356Z,13.20
2018-02-04T08:06:20.722Z,12.73
2018-02-04T08:08:49.047Z,13.03
2018-02-04T08:11:17.703Z,12.37
2018-02-04T08:13:46.018Z,12.87
2018-02-04T08:16:14.368Z,12.73
2018-02-04T08:18:42.727Z,14.07
2018-02-04T08:21:11.047Z,12.37
2018-02-04T08:23:39.364Z,14.07
2018-02-04T08:26:08.460Z,12.97
2018-02-04T08:28:37.524Z,12.33
2018-02-04T08:31:06.375Z,13.30
2018-02-04T08:33:35.131Z,13.70
2018-02-04T08:36:03.591Z,12.63
2018-02-04T08:38:31.908Z,12.67
2018-02-04T08:41:00.276Z,13.90
2018-02-04T08:43:28.591Z,12.10
2018-02-04T08:45:56.919Z,13.33
2018-02-04T08:48:26.009Z,13.00
2018-02-04T08:50:54.352Z,11.93
2018-02-04T08:53:22.673Z,13.03
2018-02-04T08:55:51.336Z,12.30
2018-02-04T08:58:19.689Z,13.27
2018-02-04T09:00:48.003Z,13.00
2018-02-04T09:03:16.384Z,12.37
2018-02-04T09:05:44.680Z,13.33
2018-02-04T09:08:13.786Z,12.70
2018-02-04T09:10:42.102Z,12.20
2018-02-04T09:13:10.444Z,13.40
2018-02-04T09:15:38.763Z,12.40
2018-02-04T09:18:07.604Z,12.83
2018-02-04T09:20:35.931Z,13.60
2018-02-04T09:23:04.236Z,13.40
2018-02-04T09:25:35.561Z,12.90
2018-02-04T09:28:04.631Z,12.63
2018-02-04T09:30:32.986Z,13.30
2018-02-04T09:33:02.513Z,13.63
2018-02-04T09:35:30.841Z,13.20
2018-02-04T09:37:59.195Z,12.67
2018-02-04T09:40:27.619Z,12.80
2018-02-04T09:42:56.700Z,15.10
2018-02-04T09:45:25.096Z,13.45
2018-02-04T09:47:54.201Z,13.50
2018-02-04T09:50:22.531Z,12.30
2018-02-04T09:52:50.855Z,11.75
2018-02-04T09:55:19.286Z,12.35
2018-02-04T09:57:47.691Z,11.75
2018-02-04T10:00:16.017Z,11.80
2018-02-04T10:02:44.765Z,11.60
2018-02-04T10:05:13.094Z,12.35
2018-02-04T10:07:41.404Z,11.75
2018-02-04T10:10:10.207Z,11.93
2018-02-04T10:12:38.579Z,11.73
2018-02-04T10:15:07.698Z,10.93
2018-02-04T10:17:36.857Z,12.32
2018-02-04T10:20:05.205Z,11.02
2018-02-04T10:22:33.522Z,12.93
2018-02-04T10:25:02.321Z,12.70
2018-02-04T10:27:30.680Z,12.07
2018-02-04T10:29:59.764Z,11.40
2018-02-04T10:32:28.117Z,13.20
2018-02-04T10:34:56.450Z,12.40
2018-02-04T10:37:24.790Z,11.93
2018-02-04T10:39:53.132Z,12.00
2018-02-04T10:42:22.228Z,11.40
2018-02-04T10:44:51.324Z,10.85
2018-02-04T10:47:20.957Z,11.15
2018-02-04T10:49:49.371Z,12.50
2018-02-04T10:52:17.706Z,12.65
2018-02-04T10:54:46.088Z,12.63
2018-02-04T10:57:14.408Z,13.05
2018-02-04T10:59:42.746Z,12.70
2018-02-04T11:02:11.147Z,12.75
2018-02-04T11:04:39.543Z,13.25
2018-02-04T11:07:07.839Z,12.20
2018-02-04T11:09:36.452Z,12.23
2018-02-04T11:12:04.781Z,12.68
2018-02-04T11:14:33.097Z,13.48
2018-02-04T11:17:02.222Z,12.48
2018-02-04T11:19:30.557Z,12.07
2018-02-04T11:21:58.868Z,13.10
2018-02-04T11:24:27.684Z,11.73
2018-02-04T11:26:56.054Z,12.60
2018-02-04T11:29:24.410Z,11.57
2018-02-04T11:31:53.909Z,11.52
2018-02-04T11:34:23.007Z,11.20
2018-02-04T11:36:52.145Z,13.27
2018-02-04T11:39:20.502Z,11.38
2018-02-04T11:41:48.820Z,11.95
2018-02-04T11:44:17.146Z,11.75
2018-02-04T11:46:46.244Z,12.65
2018-02-04T11:49:14.575Z,11.10
2018-02-04T11:51:42.885Z,11.80
2018-02-04T11:54:11.563Z,11.18
2018-02-04T11:56:39.888Z,11.15
2018-02-04T11:59:08.272Z,9.65
2018-02-04T12:01:36.944Z,10.07
2018-02-04T12:04:05.359Z,10.20
2018-02-04T12:06:33.819Z,9.90
2018-02-04T12:09:02.151Z,10.32
2018-02-04T12:11:31.257Z,10.82
2018-02-04T12:14:00.321Z,10.60
2018-02-04T12:16:29.316Z,10.02
2018-02-04T12:18:57.653Z,9.75
2018-02-04T12:21:25.983Z,8.95
2018-02-04T12:23:55.102Z,9.32
2018-02-04T12:26:24.176Z,8.18
2018-02-04T12:28:53.761Z,9.18
2018-02-04T12:31:22.416Z,8.90
2018-02-04T12:33:50.732Z,7.82
2018-02-04T12:36:19.127Z,8.68
2018-02-04T12:38:48.130Z,9.43
2018-02-04T12:41:16.454Z,9.27
2018-02-04T12:43:44.762Z,9.68
2018-02-04T12:46:13.105Z,8.55
2018-02-04T12:48:41.439Z,8.98
2018-02-04T12:51:09.778Z,9.77
2018-02-04T12:53:38.200Z,9.30
2018-02-04T12:56:07.441Z,9.68
2018-02-04T12:58:35.824Z,11.02
2018-02-04T13:01:04.353Z,10.00
2018-02-04T13:03:32.676Z,10.98
2018-02-04T13:06:00.988Z,10.52
2018-02-04T13:08:29.407Z,11.15
2018-02-04T13:10:58.581Z,11.02
2018-02-04T13:13:26.967Z,10.63
2018-02-04T13:15:55.784Z,10.25
2018-02-04T13:18:24.096Z,9.80
2018-02-04T13:20:52.462Z,11.63
2018-02-04T13:23:21.114Z,10.60
2018-02-04T13:25:50.220Z,11.32
2018-02-04T13:28:19.581Z,11.48
2018-02-04T13:30:47.977Z,10.60
2018-02-04T13:33:17.106Z,12.35
2018-02-04T13:35:45.439Z,11.98
2018-02-04T13:38:13.776Z,11.02
2018-02-04T13:40:42.076Z,11.80
2018-02-04T13:43:10.513Z,12.20
2018-02-04T13:45:39.060Z,11.90
2018-02-04T13:48:07.402Z,11.05
2018-02-04T13:50:35.746Z,11.68
2018-02-04T13:53:05.132Z,11.52
2018-02-04T13:55:33.472Z,12.60
2018-02-04T13:58:01.887Z,12.35
2018-02-04T14:00:30.246Z,10.77
2018-02-04T14:02:58.570Z,11.05
2018-02-04T14:05:26.880Z,12.00
2018-02-04T14:07:55.733Z,11.68
2018-02-04T14:10:24.041Z,13.45
2018-02-04T14:12:52.434Z,12.93
2018-02-04T14:15:20.761Z,11.52
2018-02-04T14:17:49.216Z,12.00
2018-02-04T14:20:17.529Z,11.85
2018-02-04T14:22:46.672Z,11.50
2018-02-04T14:25:15.034Z,12.05
2018-02-04T14:27:43.336Z,12.65
2018-02-04T14:30:12.468Z,17.85
2018-02-04T14:32:40.814Z,12.60
2018-02-04T14:35:09.126Z,12.70
2018-02-04T14:37:38.266Z,11.77
2018-02-04T14:40:06.592Z,11.98
2018-02-04T14:42:34.892Z,13.23
2018-02-04T14:45:03.264Z,13.10
2018-02-04T14:47:32.349Z,13.35
2018-02-04T14:50:01.462Z,12.55
2018-02-04T14:52:31.063Z,13.00
2018-02-04T14:54:59.487Z,12.80
2018-02-04T14:57:27.892Z,13.30
2018-02-04T14:59:56.218Z,15.57
2018-02-04T15:02:25.294Z,15.85
2018-02-04T15:04:53.720Z,14.13
2018-02-04T15:07:22.391Z,14.38
2018-02-04T15:09:50.895Z,14.73
2018-02-04T15:12:19.243Z,14.05
2018-02-04T15:14:47.848Z,14.32
2018-02-04T15:17:16.173Z,13.88
2018-02-04T15:19:44.516Z,14.90
2018-02-04T15:22:12.889Z,14.38
2018-02-04T15:24:41.369Z,14.85
2018-02-04T15:27:09.689Z,13.80
2018-02-04T15:29:38.048Z,13.82
2018-02-04T15:32:06.442Z,14.43
2018-02-04T15:34:34.742Z,13.48
2018-02-04T15:37:04.041Z,13.20
2018-02-04T15:39:32.360Z,15.30
2018-02-04T15:42:00.694Z,13.98
2018-02-04T15:44:29.567Z,12.70
2018-02-04T15:46:57.898Z,12.40
2018-02-04T15:49:26.396Z,12.57
2018-02-04T15:51:54.864Z,11.73
2018-02-04T15:54:23.212Z,12.48
2018-02-04T15:56:51.660Z,12.93
2018-02-04T15:59:20.868Z,11.70
2018-02-04T16:01:49.200Z,12.73
2018-02-04T16:04:17.545Z,13.10
2018-02-04T16:06:46.668Z,13.23
2018-02-04T16:09:14.996Z,14.52
2018-02-04T16:11:43.340Z,15.43
2018-02-04T16:14:11.689Z,14.57
2018-02-04T16:16:40.791Z,14.05
2018-02-04T16:19:09.132Z,13.88
2018-02-04T16:21:38.508Z,13.60
2018-02-04T16:24:06.864Z,15.82
2018-02-04T16:26:35.294Z,14.43
2018-02-04T16:29:03.678Z,15.70
2018-02-04T16:31:32.179Z,15.93
2018-02-04T16:34:01.290Z,14.30
2018-02-04T16:36:29.709Z,14.50
2018-02-04T16:38:58.077Z,14.27
2018-02-04T16:41:26.434Z,14.10
2018-02-04T16:43:55.082Z,13.80
2018-02-04T16:46:23.520Z,12.75
2018-02-04T16:48:51.967Z,13.95
2018-02-04T16:51:20.354Z,14.68
2018-02-04T16:53:48.729Z,13.55
2018-02-04T16:56:17.107Z,14.30
2018-02-04T16:58:46.587Z,14.05
2018-02-04T17:01:14.917Z,13.93
2018-02-04T17:03:43.253Z,14.13
2018-02-04T17:06:12.184Z,13.55
2018-02-04T17:08:40.504Z,12.85
2018-02-04T17:11:08.817Z,13.80
2018-02-04T17:13:37.924Z,14.10
2018-02-04T17:16:06.256Z,13.60
2018-02-04T17:18:34.580Z,13.90
2018-02-04T17:21:02.988Z,13.48
2018-02-04T17:23:31.347Z,13.90
2018-02-04T17:25:59.645Z,13.62
2018-02-04T17:28:28.042Z,13.85
2018-02-04T17:30:56.344Z,13.80
2018-02-04T17:33:24.652Z,13.73
2018-02-04T17:35:53.247Z,14.00
2018-02-04T17:38:21.548Z,15.15
2018-02-04T17:40:49.884Z,14.00
2018-02-04T17:43:18.220Z,14.32
2018-02-04T17:45:46.546Z,14.20
2018-02-04T17:48:14.887Z,14.25
2018-02-04T17:50:43.428Z,13.90
2018-02-04T17:53:11.738Z,13.77
2018-02-04T17:55:40.047Z,13.75
2018-02-04T17:58:09.160Z,13.65
2018-02-04T18:00:38.249Z,13.62
2018-02-04T18:03:07.335Z,13.48
2018-02-04T18:05:36.484Z,14.38
2018-02-04T18:08:04.844Z,14.32
2018-02-04T18:10:33.170Z,15.68
2018-02-04T18:13:02.097Z,15.02
2018-02-04T18:15:31.202Z,15.65
2018-02-04T18:18:00.261Z,15.10
2018-02-04T18:20:28.603Z,16.15
2018-02-04T18:22:56.932Z,14.30
2018-02-04T18:25:25.271Z,14.70
2018-02-04T18:27:53.632Z,14.90
2018-02-04T18:30:21.941Z,15.82
2018-02-04T18:32:50.270Z,14.50
2018-02-04T18:35:18.783Z,14.85
2018-02-04T18:37:47.200Z,14.87
2018-02-04T18:40:15.527Z,14.40
2018-02-04T18:42:43.871Z,14.27
2018-02-04T18:45:12.956Z,14.98
2018-02-04T18:47:42.026Z,14.30
2018-02-04T18:50:10.845Z,14.50
2018-02-04T18:52:39.169Z,13.93
2018-02-04T18:55:07.510Z,14.40
2018-02-04T18:57:36.691Z,14.95
2018-02-04T19:00:06.815Z,13.77
2018-02-04T19:02:35.148Z,13.52
2018-02-04T19:05:03.507Z,13.82
2018-02-04T19:07:31.987Z,13.85
2018-02-04T19:10:00.383Z,14.35
2018-02-04T19:12:28.709Z,14.02
2018-02-04T19:14:57.039Z,12.93
2018-02-04T19:17:25.387Z,13.10
2018-02-04T19:19:54.623Z,13.30
2018-02-04T19:22:23.213Z,12.90
2018-02-04T19:24:51.555Z,13.57
2018-02-04T19:27:20.334Z,13.98
2018-02-04T19:29:48.662Z,14.00
2018-02-04T19:32:16.968Z,13.13
2018-02-04T19:34:45.326Z,14.10
2018-02-04T19:37:13.681Z,12.77
2018-02-04T19:39:42.018Z,13.32
2018-02-04T19:42:11.208Z,12.75
2018-02-04T19:44:39.531Z,13.80
2018-02-04T19:47:07.872Z,12.48
2018-02-04T19:49:37.036Z,13.62
2018-02-04T19:52:05.403Z,13.15
2018-02-04T19:54:33.711Z,12.95
2018-02-04T19:57:02.073Z,12.48
2018-02-04T19:59:30.433Z,11.57
2018-02-04T20:01:58.775Z,12.93
2018-02-04T20:04:28.424Z,11.38
2018-02-04T20:06:56.745Z,10.88
2018-02-04T20:09:25.074Z,12.07
2018-02-04T20:11:53.408Z,11.45
2018-02-04T20:14:21.738Z,11.30
2018-02-04T20:16:50.092Z,12.15
2018-02-04T20:19:18.429Z,11.07
2018-02-04T20:21:46.744Z,11.55
2018-02-04T20:24:15.060Z,12.25
2018-02-04T20:26:43.722Z,11.43
2018-02-04T20:29:12.024Z,10.20
2018-02-04T20:31:40.400Z,10.07
2018-02-04T20:34:26.471Z,10.75
2018-02-04T20:36:54.816Z,10.10
2018-02-04T20:39:23.129Z,10.38
2018-02-04T20:41:52.991Z,10.38
2018-02-04T20:44:22.145Z,10.35
2018-02-04T20:46:50.472Z,10.30
2018-02-04T20:49:18.823Z,9.20
2018-02-04T20:51:47.126Z,9.32
2018-02-04T20:54:15.462Z,9.95
2018-02-04T20:56:43.832Z,10.00
2018-02-04T20:59:12.168Z,9.00
2018-02-04T21:01:41.196Z,9.50
2018-02-04T21:04:09.674Z,8.40
2018-02-04T21:06:37.973Z,7.78
2018-02-04T21:09:06.301Z,7.75
2018-02-04T21:11:34.629Z,9.23
2018-02-04T21:14:03.188Z,8.20
2018-02-04T21:16:31.545Z,9.18
2018-02-04T21:18:59.888Z,8.50
2018-02-04T21:21:28.351Z,7.95
2018-02-04T21:23:56.831Z,7.68
2018-02-04T21:26:25.439Z,7.75
2018-02-04T21:28:53.748Z,7.30
2018-02-04T21:31:22.075Z,6.80
2018-02-04T21:33:50.544Z,7.68
2018-02-04T21:36:18.893Z,8.05
2018-02-04T21:38:48.046Z,7.60
2018-02-04T21:41:16.414Z,7.35
2018-02-04T21:43:46.098Z,7.75
2018-02-04T21:46:14.439Z,7.97
2018-02-04T21:48:43.326Z,7.47
2018-02-04T21:51:11.648Z,7.18
2018-02-04T21:53:40.838Z,6.65
2018-02-04T21:56:10.044Z,6.75
2018-02-04T21:58:38.371Z,7.22
2018-02-04T22:01:06.772Z,6.57
2018-02-04T22:03:35.457Z,8.02
2018-02-04T22:06:03.788Z,7.20
2018-02-04T22:08:32.116Z,7.62
2018-02-04T22:11:00.516Z,7.60
2018-02-04T22:13:29.843Z,8.40
2018-02-04T22:15:58.353Z,7.68
2018-02-04T22:18:26.995Z,7.90
2018-02-04T22:20:55.303Z,7.20
2018-02-04T22:23:23.610Z,7.18
2018-02-04T22:25:51.933Z,7.10
2018-02-04T22:28:20.288Z,6.75
2018-02-04T22:30:49.401Z,7.20
2018-02-04T22:33:18.548Z,7.22
2018-02-04T22:35:46.845Z,6.22
2018-02-04T22:38:15.176Z,7.03
2018-02-04T22:40:43.499Z,6.62
2018-02-04T22:43:11.804Z,6.80
2018-02-04T22:45:41.023Z,7.28
2018-02-04T22:48:09.868Z,6.75
2018-02-04T22:50:38.163Z,6.62
2018-02-04T22:53:06.584Z,6.40
2018-02-04T22:55:35.522Z,6.50
2018-02-04T22:58:03.820Z,6.30
2018-02-04T23:00:32.116Z,6.32
2018-02-04T23:03:02.506Z,6.57
2018-02-04T23:05:30.809Z,6.70
2018-02-04T23:07:59.904Z,6.87
2018-02-04T23:10:28.286Z,6.20
2018-02-04T23:12:56.624Z,7.12
2018-02-04T23:15:24.936Z,6.18
2018-02-04T23:17:54.228Z,6.15
2018-02-04T23:20:23.358Z,5.97
2018-02-04T23:22:52.425Z,5.95
2018-02-04T23:25:21.520Z,5.82
2018-02-04T23:27:50.601Z,6.35
2018-02-04T23:30:19.667Z,6.37
2018-02-04T23:32:48.005Z,6.70
2018-02-04T23:35:16.290Z,6.53
2018-02-04T23:37:44.657Z,6.47
2018-02-04T23:40:13.259Z,5.65
2018-02-04T23:42:41.577Z,6.15
2018-02-04T23:45:09.862Z,6.30
2018-02-04T23:47:38.226Z,5.70
2018-02-04T23:50:06.552Z,5.50
2018-02-04T23:52:35.637Z,5.57
2018-02-04T23:55:04.728Z,6.50
2018-02-04T23:57:33.037Z,5.15
